createdAt,value
2022-11-10T00:02:36.888Z,8.60
2022-11-10T00:05:22.264Z,8.60
2022-11-10T00:08:10.874Z,8.54
2022-11-10T00:10:59.199Z,8.47
2022-11-10T00:14:07.501Z,8.49
2022-11-10T00:17:04.530Z,8.52
2022-11-10T00:19:50.047Z,8.52
2022-11-10T00:22:37.276Z,8.51
2022-11-10T00:25:24.212Z,8.50
2022-11-10T00:28:09.538Z,8.54
2022-11-10T00:30:55.169Z,8.54
2022-11-10T00:33:44.700Z,8.47
2022-11-10T00:36:30.595Z,8.43
2022-11-10T00:39:15.927Z,8.42
2022-11-10T00:42:01.268Z,8.42
2022-11-10T00:44:46.955Z,8.38
2022-11-10T00:47:32.469Z,8.35
2022-11-10T00:50:18.578Z,8.33
2022-11-10T00:53:04.860Z,8.33
2022-11-10T00:55:50.588Z,8.31
2022-11-10T00:58:36.642Z,8.27
2022-11-10T01:01:27.187Z,8.25
2022-11-10T01:04:13.323Z,8.19
2022-11-10T01:06:58.860Z,8.16
2022-11-10T01:09:44.454Z,8.15
2022-11-10T01:12:30.950Z,8.12
2022-11-10T01:15:16.407Z,8.06
2022-11-10T01:18:02.218Z,8.02
2022-11-10T01:20:51.719Z,7.98
2022-11-10T01:23:37.170Z,7.92
2022-11-10T01:26:23.112Z,7.86
2022-11-10T01:29:08.653Z,7.81
2022-11-10T01:31:54.398Z,7.78
2022-11-10T01:34:40.045Z,7.75
2022-11-10T01:37:25.483Z,7.77
2022-11-10T01:40:12.091Z,7.73
2022-11-10T01:42:59.149Z,7.74
2022-11-10T01:46:13.851Z,7.75
2022-11-10T01:49:04.546Z,7.68
2022-11-10T01:52:06.013Z,7.61
2022-11-10T01:54:51.866Z,7.57
2022-11-10T01:57:38.277Z,7.56
2022-11-10T02:00:24.413Z,7.59
2022-11-10T02:03:30.772Z,7.59
2022-11-10T02:06:18.424Z,7.60
2022-11-10T02:09:04.440Z,7.62
2022-11-10T02:11:54.413Z,7.62
2022-11-10T02:14:39.784Z,7.74
2022-11-10T02:17:25.684Z,7.79
2022-11-10T02:20:13.640Z,7.76
2022-11-10T02:22:59.191Z,7.74
2022-11-10T02:25:44.704Z,7.71
2022-11-10T02:28:34.824Z,7.72
2022-11-10T02:31:20.437Z,7.66
2022-11-10T02:34:06.067Z,7.61
2022-11-10T02:36:51.572Z,7.62
2022-11-10T02:39:37.939Z,7.69
2022-11-10T02:42:23.638Z,7.74
2022-11-10T02:45:09.351Z,7.81
2022-11-10T02:47:54.732Z,7.79
2022-11-10T02:50:40.634Z,7.82
2022-11-10T02:53:26.181Z,7.79
2022-11-10T02:56:12.099Z,7.74
2022-11-10T02:58:57.712Z,7.67
2022-11-10T03:01:43.300Z,7.59
2022-11-10T03:04:28.869Z,7.53
2022-11-10T03:07:14.552Z,7.56
2022-11-10T03:10:00.087Z,7.53
2022-11-10T03:12:45.403Z,7.50
2022-11-10T03:15:31.142Z,7.46
2022-11-10T03:18:16.751Z,7.45
2022-11-10T03:21:02.260Z,7.38
2022-11-10T03:23:47.820Z,7.35
2022-11-10T03:26:33.326Z,7.29
2022-11-10T03:29:18.764Z,7.26
2022-11-10T03:32:04.345Z,7.25
2022-11-10T03:34:50.039Z,7.22
2022-11-10T03:37:35.915Z,7.22
2022-11-10T03:40:21.897Z,7.25
2022-11-10T03:43:07.222Z,7.32
2022-11-10T03:45:52.944Z,7.52
2022-11-10T03:48:38.583Z,7.72
2022-11-10T03:51:24.321Z,7.64
2022-11-10T03:54:09.879Z,7.69
2022-11-10T03:56:55.540Z,7.59
2022-11-10T03:59:41.243Z,7.55
2022-11-10T04:02:26.622Z,7.51
2022-11-10T04:05:30.490Z,7.48
2022-11-10T04:08:36.340Z,7.46
2022-11-10T04:11:40.952Z,7.45
2022-11-10T04:14:45.038Z,7.43
2022-11-10T04:17:31.684Z,7.33
2022-11-10T04:20:17.665Z,7.28
2022-11-10T04:23:22.244Z,7.29
2022-11-10T04:26:28.603Z,7.39
2022-11-10T04:29:15.641Z,7.24
2022-11-10T04:32:01.182Z,7.18
2022-11-10T04:34:46.913Z,7.09
2022-11-10T04:37:32.273Z,7.23
2022-11-10T04:40:17.616Z,7.15
2022-11-10T04:43:03.512Z,7.08
2022-11-10T04:45:49.618Z,7.07
2022-11-10T04:48:35.641Z,7.05
2022-11-10T04:51:23.488Z,7.04
2022-11-10T04:54:09.328Z,7.03
2022-11-10T04:56:54.643Z,7.05
2022-11-10T04:59:40.336Z,7.18
2022-11-10T05:02:25.717Z,7.18
2022-11-10T05:05:11.937Z,7.29
2022-11-10T05:07:58.308Z,7.52
2022-11-10T05:10:44.104Z,7.31
2022-11-10T05:13:30.072Z,7.22
2022-11-10T05:16:16.017Z,7.12
2022-11-10T05:19:01.535Z,7.07
2022-11-10T05:21:47.345Z,7.08
2022-11-10T05:24:32.838Z,7.13
2022-11-10T05:27:18.692Z,7.17
2022-11-10T05:30:04.851Z,7.22
2022-11-10T05:32:50.365Z,7.26
2022-11-10T05:35:36.109Z,7.27
2022-11-10T05:38:22.068Z,7.24
2022-11-10T05:41:07.646Z,7.19
2022-11-10T05:43:53.093Z,7.11
2022-11-10T05:46:38.383Z,7.04
2022-11-10T05:49:24.364Z,7.06
2022-11-10T05:52:10.157Z,7.09
2022-11-10T05:54:55.826Z,7.13
2022-11-10T05:57:49.173Z,7.19
2022-11-10T06:00:35.805Z,7.26
2022-11-10T06:03:21.859Z,7.35
2022-11-10T06:06:08.349Z,7.41
2022-11-10T06:08:56.682Z,7.48
2022-11-10T06:11:42.084Z,7.56
2022-11-10T06:14:28.073Z,7.63
2022-11-10T06:17:14.334Z,7.72
2022-11-10T06:19:59.855Z,7.80
2022-11-10T06:23:04.334Z,7.87
2022-11-10T06:25:49.939Z,7.93
2022-11-10T06:28:35.658Z,8.00
2022-11-10T06:31:21.562Z,8.09
2022-11-10T06:34:07.046Z,8.27
2022-11-10T06:36:52.512Z,8.56
2022-11-10T06:39:38.135Z,8.77
2022-11-10T06:42:23.595Z,8.87
2022-11-10T06:45:10.083Z,8.92
2022-11-10T06:48:06.417Z,8.97
2022-11-10T06:50:51.892Z,9.01
2022-11-10T06:53:37.623Z,9.03
2022-11-10T06:56:24.642Z,9.11
2022-11-10T06:59:10.593Z,9.23
2022-11-10T07:01:56.014Z,9.31
2022-11-10T07:04:43.015Z,9.34
2022-11-10T07:07:29.087Z,9.43
2022-11-10T07:10:15.346Z,9.52
2022-11-10T07:13:02.567Z,9.55
2022-11-10T07:15:48.856Z,9.55
2022-11-10T07:18:35.023Z,9.58
2022-11-10T07:21:20.990Z,9.61
2022-11-10T07:24:07.548Z,9.68
2022-11-10T07:26:53.308Z,9.76
2022-11-10T07:29:40.891Z,9.86
2022-11-10T07:32:26.844Z,10.00
2022-11-10T07:35:12.408Z,10.11
2022-11-10T07:38:01.658Z,10.22
2022-11-10T07:40:50.795Z,10.34
2022-11-10T07:43:36.200Z,10.43
2022-11-10T07:46:21.951Z,10.50
2022-11-10T07:49:07.632Z,10.65
2022-11-10T07:51:53.645Z,10.82
2022-11-10T07:54:39.401Z,10.93
2022-11-10T07:57:24.996Z,11.01
2022-11-10T08:00:12.851Z,11.03
2022-11-10T08:03:12.503Z,11.08
2022-11-10T08:05:58.268Z,11.11
2022-11-10T08:08:45.865Z,11.17
2022-11-10T08:11:31.793Z,11.21
2022-11-10T08:14:19.238Z,11.29
2022-11-10T08:17:04.950Z,11.31
2022-11-10T08:19:50.359Z,11.32
2022-11-10T08:22:36.034Z,11.37
2022-11-10T08:25:21.793Z,11.38
2022-11-10T08:28:15.613Z,11.50
2022-11-10T08:31:05.699Z,11.65
2022-11-10T08:33:52.375Z,11.75
2022-11-10T08:36:38.505Z,11.83
2022-11-10T08:39:38.009Z,11.88
2022-11-10T08:42:06.556Z,11.97
2022-11-10T08:44:51.973Z,12.07
2022-11-10T08:47:37.968Z,12.24
2022-11-10T08:50:23.749Z,12.33
2022-11-10T08:53:17.631Z,12.39
2022-11-10T08:56:02.972Z,12.52
2022-11-10T08:58:53.488Z,12.61
2022-11-10T09:01:39.624Z,12.63
2022-11-10T09:04:25.691Z,12.70
2022-11-10T09:07:11.294Z,12.65
2022-11-10T09:10:06.845Z,12.49
2022-11-10T09:12:53.228Z,12.50
2022-11-10T09:15:39.745Z,12.60
2022-11-10T09:18:25.068Z,12.70
2022-11-10T09:21:12.190Z,12.77
2022-11-10T09:24:00.480Z,12.92
2022-11-10T09:26:48.187Z,13.01
2022-11-10T09:29:33.811Z,13.06
2022-11-10T09:32:19.380Z,13.14
2022-11-10T09:35:05.658Z,13.27
2022-11-10T09:37:51.518Z,13.36
2022-11-10T09:40:58.110Z,13.42
2022-11-10T09:44:11.896Z,13.55
2022-11-10T09:47:50.591Z,13.63
2022-11-10T09:50:36.406Z,13.86
2022-11-10T09:53:30.049Z,13.74
2022-11-10T09:56:22.277Z,13.74
2022-11-10T09:59:24.672Z,13.91
2022-11-10T10:02:41.349Z,14.14
2022-11-10T10:05:55.959Z,14.44
2022-11-10T10:09:36.978Z,14.77
2022-11-10T10:12:54.103Z,15.08
2022-11-10T10:16:25.972Z,15.37
2022-11-10T10:19:48.427Z,15.58
2022-11-10T10:23:46.882Z,15.48
2022-11-10T10:26:38.231Z,15.55
2022-11-10T10:29:51.997Z,15.78
2022-11-10T10:32:38.166Z,15.71
2022-11-10T10:35:23.841Z,15.59
2022-11-10T10:38:46.691Z,15.77
2022-11-10T10:41:33.929Z,15.99
2022-11-10T10:44:20.768Z,16.22
2022-11-10T10:47:06.471Z,16.37
2022-11-10T10:49:52.651Z,16.64
2022-11-10T10:52:38.294Z,16.86
2022-11-10T10:55:29.553Z,17.01
2022-11-10T10:58:23.759Z,17.12
2022-11-10T11:01:38.343Z,17.29
2022-11-10T11:04:42.566Z,17.36
2022-11-10T11:07:28.062Z,17.39
2022-11-10T11:10:44.903Z,17.50
2022-11-10T11:13:30.822Z,17.66
2022-11-10T11:16:16.234Z,17.86
2022-11-10T11:19:02.115Z,18.09
2022-11-10T11:22:07.773Z,18.41
2022-11-10T11:25:38.622Z,18.62
2022-11-10T11:29:06.384Z,18.69
2022-11-10T11:32:39.098Z,18.78
2022-11-10T11:35:47.133Z,19.04
2022-11-10T11:38:45.024Z,19.16
2022-11-10T11:42:09.019Z,19.09
2022-11-10T11:45:26.125Z,19.09
2022-11-10T11:48:53.515Z,18.88
2022-11-10T11:52:14.391Z,18.80
2022-11-10T11:55:44.759Z,19.02
2022-11-10T11:59:16.641Z,19.17
2022-11-10T12:02:45.564Z,19.32
2022-11-10T12:06:22.203Z,19.53
2022-11-10T12:09:27.942Z,19.74
2022-11-10T12:13:03.010Z,20.00
2022-11-10T12:16:22.300Z,20.26
2022-11-10T12:19:57.234Z,20.43
2022-11-10T12:22:55.920Z,20.27
2022-11-10T12:26:19.703Z,20.16
2022-11-10T12:29:44.518Z,20.23
2022-11-10T12:32:47.369Z,20.36
2022-11-10T12:35:35.862Z,20.46
2022-11-10T12:38:40.497Z,20.49
2022-11-10T12:41:34.034Z,20.49
2022-11-10T12:44:43.392Z,20.68
2022-11-10T12:47:52.363Z,20.78
2022-11-10T12:50:54.347Z,20.99
2022-11-10T12:53:42.540Z,21.04
2022-11-10T12:56:46.018Z,21.11
2022-11-10T12:59:40.720Z,21.19
2022-11-10T13:02:55.636Z,21.39
2022-11-10T13:05:45.378Z,21.47
2022-11-10T13:08:47.251Z,21.50
2022-11-10T13:11:37.577Z,21.48
2022-11-10T13:14:30.093Z,21.52
2022-11-10T13:18:03.645Z,21.55
2022-11-10T13:20:57.322Z,21.44
2022-11-10T13:24:12.349Z,21.59
2022-11-10T13:27:02.991Z,21.67
2022-11-10T13:29:58.619Z,21.77
2022-11-10T13:32:49.119Z,21.86
2022-11-10T13:36:00.620Z,21.97
2022-11-10T13:38:47.282Z,22.05
2022-11-10T13:41:35.212Z,22.14
2022-11-10T13:44:42.894Z,22.24
2022-11-10T13:47:54.410Z,22.45
2022-11-10T13:51:12.401Z,22.92
2022-11-10T13:54:55.811Z,24.19
2022-11-10T13:57:53.364Z,25.46
2022-11-10T14:00:39.147Z,26.50
2022-11-10T14:04:02.302Z,27.21
2022-11-10T14:06:53.451Z,27.62
2022-11-10T14:09:41.711Z,27.75
2022-11-10T14:12:57.062Z,28.07
2022-11-10T14:15:48.442Z,28.38
2022-11-10T14:18:41.149Z,28.55
2022-11-10T14:21:37.765Z,28.62
2022-11-10T14:24:35.222Z,28.50
2022-11-10T14:27:25.727Z,28.22
2022-11-10T14:30:27.865Z,27.83
2022-11-10T14:33:15.320Z,27.79
2022-11-10T14:36:03.162Z,27.80
2022-11-10T14:38:49.498Z,27.45
2022-11-10T14:41:35.847Z,26.80
2022-11-10T14:44:27.844Z,26.35
2022-11-10T14:47:31.444Z,25.72
2022-11-10T14:50:34.882Z,24.98
2022-11-10T14:53:46.128Z,23.56
2022-11-10T14:56:37.099Z,22.45
2022-11-10T14:59:24.543Z,21.69
2022-11-10T15:02:18.738Z,21.02
2022-11-10T15:05:05.496Z,20.47
2022-11-10T15:07:56.999Z,19.97
2022-11-10T15:10:48.662Z,19.51
2022-11-10T15:13:38.628Z,19.03
2022-11-10T15:16:36.876Z,18.63
2022-11-10T15:19:36.258Z,18.28
2022-11-10T15:22:35.312Z,17.89
2022-11-10T15:25:23.848Z,17.56
2022-11-10T15:28:24.635Z,17.28
2022-11-10T15:31:12.229Z,16.97
2022-11-10T15:34:02.139Z,16.73
2022-11-10T15:37:09.273Z,16.46
2022-11-10T15:40:34.007Z,16.13
2022-11-10T15:43:27.310Z,15.88
2022-11-10T15:46:22.401Z,15.67
2022-11-10T15:49:28.431Z,15.46
2022-11-10T15:52:20.936Z,15.31
2022-11-10T15:55:06.685Z,15.10
2022-11-10T15:57:52.791Z,14.89
2022-11-10T16:00:38.978Z,14.66
2022-11-10T16:03:24.878Z,14.50
2022-11-10T16:06:17.347Z,14.35
2022-11-10T16:09:03.260Z,14.22
2022-11-10T16:11:48.975Z,14.16
2022-11-10T16:14:34.590Z,13.99
2022-11-10T16:17:20.311Z,13.86
2022-11-10T16:20:15.322Z,13.74
2022-11-10T16:23:01.106Z,13.62
2022-11-10T16:25:49.386Z,13.54
2022-11-10T16:28:34.624Z,13.45
2022-11-10T16:31:24.656Z,13.34
2022-11-10T16:34:14.459Z,13.22
2022-11-10T16:37:00.426Z,13.13
2022-11-10T16:39:46.101Z,13.07
2022-11-10T16:42:31.597Z,13.00
2022-11-10T16:45:20.155Z,12.89
2022-11-10T16:48:07.776Z,12.74
2022-11-10T16:50:55.855Z,12.62
2022-11-10T16:53:41.974Z,12.52
2022-11-10T16:56:27.726Z,12.47
2022-11-10T16:59:13.790Z,12.41
2022-11-10T17:01:59.253Z,12.37
2022-11-10T17:04:44.898Z,12.27
2022-11-10T17:07:30.809Z,12.12
2022-11-10T17:10:17.838Z,12.02
2022-11-10T17:13:03.554Z,11.98
2022-11-10T17:15:51.074Z,11.90
2022-11-10T17:18:36.809Z,11.84
2022-11-10T17:21:26.165Z,11.80
2022-11-10T17:24:19.035Z,11.74
2022-11-10T17:27:05.202Z,11.68
2022-11-10T17:29:51.170Z,11.64
2022-11-10T17:33:03.133Z,11.58
2022-11-10T17:35:50.971Z,11.50
2022-11-10T17:38:36.642Z,11.43
2022-11-10T17:41:22.544Z,11.40
2022-11-10T17:44:15.648Z,11.40
2022-11-10T17:47:01.486Z,11.38
2022-11-10T17:49:47.271Z,11.37
2022-11-10T17:52:32.979Z,11.33
2022-11-10T17:55:24.214Z,11.31
2022-11-10T17:58:10.854Z,11.27
2022-11-10T18:00:56.615Z,11.28
2022-11-10T18:03:42.042Z,11.30
2022-11-10T18:06:27.462Z,11.34
2022-11-10T18:09:12.804Z,11.30
2022-11-10T18:11:58.441Z,11.25
2022-11-10T18:14:43.957Z,11.17
2022-11-10T18:17:29.560Z,11.16
2022-11-10T18:20:15.147Z,11.15
2022-11-10T18:23:00.649Z,11.15
2022-11-10T18:25:46.257Z,11.17
2022-11-10T18:28:31.849Z,11.14
2022-11-10T18:31:19.191Z,11.15
2022-11-10T18:34:05.050Z,11.18
2022-11-10T18:36:52.475Z,11.22
2022-11-10T18:39:37.765Z,11.25
2022-11-10T18:42:23.437Z,11.30
2022-11-10T18:45:09.428Z,11.32
2022-11-10T18:48:01.296Z,11.29
2022-11-10T18:50:47.042Z,11.23
2022-11-10T18:53:37.884Z,11.18
2022-11-10T18:56:23.843Z,11.11
2022-11-10T18:59:09.632Z,11.07
2022-11-10T19:01:55.708Z,11.02
2022-11-10T19:04:41.133Z,10.98
2022-11-10T19:07:26.760Z,10.94
2022-11-10T19:10:12.556Z,10.91
2022-11-10T19:12:58.655Z,10.88
2022-11-10T19:15:44.409Z,10.84
2022-11-10T19:18:29.754Z,10.81
2022-11-10T19:21:20.529Z,10.79
2022-11-10T19:24:06.631Z,10.78
2022-11-10T19:26:52.468Z,10.78
2022-11-10T19:29:37.897Z,10.80
2022-11-10T19:32:25.123Z,10.81
2022-11-10T19:35:12.364Z,10.83
2022-11-10T19:37:57.888Z,10.79
2022-11-10T19:40:44.874Z,10.75
2022-11-10T19:43:31.527Z,10.69
2022-11-10T19:46:19.411Z,10.63
2022-11-10T19:49:06.415Z,10.56
2022-11-10T19:51:52.400Z,10.53
2022-11-10T19:54:37.783Z,10.48
2022-11-10T19:57:23.398Z,10.45
2022-11-10T20:00:12.558Z,10.41
2022-11-10T20:02:58.024Z,10.39
2022-11-10T20:05:43.987Z,10.41
2022-11-10T20:08:30.286Z,10.41
2022-11-10T20:11:22.382Z,10.42
2022-11-10T20:14:08.400Z,10.41
2022-11-10T20:16:54.201Z,10.39
2022-11-10T20:19:42.343Z,10.37
2022-11-10T20:22:27.860Z,10.36
2022-11-10T20:25:13.619Z,10.33
2022-11-10T20:28:01.607Z,10.32
2022-11-10T20:30:47.188Z,10.34
2022-11-10T20:33:33.590Z,10.40
2022-11-10T20:36:22.549Z,10.47
2022-11-10T20:39:08.081Z,10.51
2022-11-10T20:41:53.714Z,10.57
2022-11-10T20:44:39.513Z,10.66
2022-11-10T20:47:27.635Z,10.71
2022-11-10T20:50:17.191Z,10.66
2022-11-10T20:53:06.055Z,10.57
2022-11-10T20:55:58.050Z,10.54
2022-11-10T20:58:45.307Z,10.55
2022-11-10T21:01:30.852Z,10.47
2022-11-10T21:04:16.206Z,10.36
2022-11-10T21:07:01.842Z,10.31
2022-11-10T21:09:47.381Z,10.27
2022-11-10T21:12:51.310Z,10.26
2022-11-10T21:15:40.276Z,10.22
2022-11-10T21:18:28.717Z,10.17
2022-11-10T21:21:23.739Z,10.12
2022-11-10T21:24:10.780Z,10.09
2022-11-10T21:26:57.302Z,10.08
2022-11-10T21:29:43.267Z,9.99
2022-11-10T21:32:28.642Z,9.86
2022-11-10T21:35:14.556Z,9.79
2022-11-10T21:38:00.463Z,9.75
2022-11-10T21:40:46.259Z,9.71
2022-11-10T21:43:31.663Z,9.67
2022-11-10T21:46:17.933Z,9.68
2022-11-10T21:49:07.666Z,9.69
2022-11-10T21:51:53.189Z,9.72
2022-11-10T21:54:38.968Z,9.71
2022-11-10T21:57:25.105Z,9.67
2022-11-10T22:00:14.328Z,9.64
2022-11-10T22:03:01.112Z,9.63
2022-11-10T22:05:46.499Z,9.63
2022-11-10T22:08:32.753Z,9.63
2022-11-10T22:11:39.250Z,9.63
2022-11-10T22:14:43.543Z,9.60
2022-11-10T22:17:48.478Z,9.63
2022-11-10T22:20:34.165Z,9.76
2022-11-10T22:23:39.381Z,9.75
2022-11-10T22:26:24.744Z,9.71
2022-11-10T22:29:10.448Z,9.72
2022-11-10T22:31:56.369Z,9.72
2022-11-10T22:34:42.364Z,9.75
2022-11-10T22:37:33.323Z,9.79
2022-11-10T22:40:37.346Z,9.83
2022-11-10T22:43:41.930Z,9.95
2022-11-10T22:46:28.270Z,10.03
2022-11-10T22:49:16.032Z,10.10
2022-11-10T22:52:01.593Z,10.15
2022-11-10T22:54:47.131Z,10.21
2022-11-10T22:57:32.732Z,10.21
2022-11-10T23:00:18.406Z,10.23
2022-11-10T23:03:04.095Z,10.29
2022-11-10T23:05:56.291Z,10.60
2022-11-10T23:08:42.700Z,10.38
2022-11-10T23:11:30.934Z,10.26
2022-11-10T23:14:16.766Z,10.13
2022-11-10T23:17:02.366Z,10.03
2022-11-10T23:19:48.091Z,9.92
2022-11-10T23:22:33.675Z,9.89
2022-11-10T23:25:18.866Z,10.00
2022-11-10T23:28:04.815Z,10.13
2022-11-10T23:30:50.728Z,10.13
2022-11-10T23:33:37.739Z,10.07
2022-11-10T23:36:25.504Z,9.98
2022-11-10T23:39:11.163Z,10.11
2022-11-10T23:41:56.529Z,10.13
2022-11-10T23:44:42.019Z,9.99
2022-11-10T23:47:27.495Z,9.78
2022-11-10T23:50:13.054Z,9.88
2022-11-10T23:52:58.601Z,9.76
2022-11-10T23:55:44.354Z,9.70
2022-11-10T23:58:30.576Z,9.80
